createdAt,value
2017-08-17T00:01:39.216Z,6.30
2017-08-17T00:04:15.011Z,7.23
2017-08-17T00:06:49.641Z,6.60
2017-08-17T00:09:23.940Z,7.73
2017-08-17T00:11:58.728Z,6.70
2017-08-17T00:14:33.327Z,7.30
2017-08-17T00:17:08.122Z,6.90
2017-08-17T00:19:43.658Z,7.40
2017-08-17T00:22:18.412Z,7.90
2017-08-17T00:24:53.028Z,7.73
2017-08-17T00:27:27.743Z,7.80
2017-08-17T00:30:02.407Z,7.57
2017-08-17T00:32:36.952Z,7.80
2017-08-17T00:35:11.495Z,8.17
2017-08-17T00:37:46.131Z,8.20
2017-08-17T00:40:20.755Z,8.00
2017-08-17T00:42:54.991Z,8.50
2017-08-17T00:45:29.960Z,8.47
2017-08-17T00:48:04.471Z,7.90
2017-08-17T00:50:39.848Z,8.23
2017-08-17T00:53:14.641Z,9.20
2017-08-17T00:55:48.962Z,7.77
2017-08-17T00:58:23.583Z,8.50
2017-08-17T01:00:58.420Z,8.40
2017-08-17T01:03:33.198Z,7.90
2017-08-17T01:06:07.544Z,9.27
2017-08-17T01:08:42.999Z,8.30
2017-08-17T01:11:17.620Z,7.50
2017-08-17T01:13:52.579Z,8.90
2017-08-17T01:16:27.255Z,8.10
2017-08-17T01:19:01.871Z,9.27
2017-08-17T01:21:35.947Z,9.33
2017-08-17T01:24:10.747Z,9.33
2017-08-17T01:26:46.400Z,8.40
2017-08-17T01:29:21.059Z,9.90
2017-08-17T01:31:55.627Z,9.10
2017-08-17T01:34:30.299Z,8.60
2017-08-17T01:37:04.774Z,8.80
2017-08-17T01:39:39.348Z,8.80
2017-08-17T01:42:13.914Z,9.10
2017-08-17T01:44:48.553Z,9.60
2017-08-17T01:47:26.611Z,8.80
2017-08-17T01:50:01.607Z,8.93
2017-08-17T01:52:36.054Z,8.10
2017-08-17T01:55:11.664Z,9.10
2017-08-17T01:57:46.214Z,9.13
2017-08-17T02:00:20.820Z,8.43
2017-08-17T02:02:56.387Z,9.57
2017-08-17T02:05:31.951Z,9.37
2017-08-17T02:08:06.652Z,8.60
2017-08-17T02:10:41.323Z,9.73
2017-08-17T02:13:16.464Z,10.30
2017-08-17T02:15:51.206Z,9.73
2017-08-17T02:18:26.012Z,9.20
2017-08-17T02:21:00.748Z,9.33
2017-08-17T02:23:35.398Z,8.97
2017-08-17T02:26:09.895Z,8.60
2017-08-17T02:28:44.648Z,9.47
2017-08-17T02:31:19.363Z,9.60
2017-08-17T02:33:54.131Z,9.73
2017-08-17T02:36:28.810Z,9.00
2017-08-17T02:39:03.104Z,8.80
2017-08-17T02:41:38.213Z,10.60
2017-08-17T02:44:13.935Z,9.63
2017-08-17T02:46:48.589Z,9.40
2017-08-17T02:49:23.295Z,10.00
2017-08-17T02:51:57.887Z,10.00
2017-08-17T02:54:32.699Z,9.90
2017-08-17T02:57:07.450Z,11.03
2017-08-17T02:59:42.207Z,10.13
2017-08-17T03:02:16.831Z,9.93
2017-08-17T03:04:52.248Z,9.70
2017-08-17T03:07:27.274Z,9.47
2017-08-17T03:10:01.948Z,9.63
2017-08-17T03:12:36.614Z,10.67
2017-08-17T03:15:12.179Z,9.80
2017-08-17T03:17:46.932Z,10.00
2017-08-17T03:20:21.627Z,10.03
2017-08-17T03:22:56.379Z,9.77
2017-08-17T03:25:32.272Z,10.00
2017-08-17T03:28:06.959Z,9.30
2017-08-17T03:30:41.739Z,10.33
2017-08-17T03:33:16.523Z,10.07
2017-08-17T03:35:51.373Z,10.47
2017-08-17T03:38:26.227Z,9.97
2017-08-17T03:41:00.906Z,11.20
2017-08-17T03:43:35.547Z,11.00
2017-08-17T03:46:10.294Z,10.13
2017-08-17T03:48:44.914Z,10.43
2017-08-17T03:51:19.672Z,11.87
2017-08-17T03:53:54.294Z,10.93
2017-08-17T03:56:29.004Z,10.73
2017-08-17T03:59:03.816Z,10.20
2017-08-17T04:01:38.150Z,11.30
2017-08-17T04:04:13.272Z,10.47
2017-08-17T04:06:48.007Z,9.50
2017-08-17T04:09:22.628Z,10.90
2017-08-17T04:11:57.390Z,10.27
2017-08-17T04:14:32.113Z,11.00
2017-08-17T04:17:06.758Z,10.17
2017-08-17T04:19:41.544Z,10.17
2017-08-17T04:22:16.319Z,11.20
2017-08-17T04:24:51.023Z,10.07
2017-08-17T04:27:26.783Z,11.40
2017-08-17T04:30:01.483Z,11.77
2017-08-17T04:32:36.319Z,11.90
2017-08-17T04:35:11.088Z,12.20
2017-08-17T04:37:45.887Z,11.20
2017-08-17T04:40:20.720Z,12.73
2017-08-17T04:42:56.447Z,11.90
2017-08-17T04:45:31.071Z,13.07
2017-08-17T04:48:05.828Z,12.50
2017-08-17T04:50:40.709Z,12.30
2017-08-17T04:53:15.451Z,12.60
2017-08-17T04:55:50.239Z,11.80
2017-08-17T04:58:44.193Z,12.23
2017-08-17T05:01:18.922Z,13.30
2017-08-17T05:03:53.559Z,12.63
2017-08-17T05:06:28.375Z,13.33
2017-08-17T05:09:03.160Z,12.70
2017-08-17T05:11:37.928Z,14.43
2017-08-17T05:14:12.627Z,14.60
2017-08-17T05:16:47.058Z,14.07
2017-08-17T05:19:22.058Z,13.67
2017-08-17T05:21:56.863Z,13.90
2017-08-17T05:24:32.638Z,14.87
2017-08-17T05:27:07.679Z,13.63
2017-08-17T05:29:42.280Z,14.87
2017-08-17T05:32:17.055Z,14.73
2017-08-17T05:34:51.868Z,13.57
2017-08-17T05:37:26.564Z,13.97
2017-08-17T05:40:01.246Z,14.90
2017-08-17T05:42:36.155Z,15.10
2017-08-17T05:45:11.948Z,13.40
2017-08-17T05:47:46.656Z,15.00
2017-08-17T05:50:21.375Z,14.87
2017-08-17T05:52:56.132Z,13.80
2017-08-17T05:55:30.937Z,13.50
2017-08-17T05:58:06.452Z,13.40
2017-08-17T06:00:41.172Z,13.03
2017-08-17T06:03:15.883Z,13.77
2017-08-17T06:05:50.677Z,13.80
2017-08-17T06:08:25.560Z,13.47
2017-08-17T06:11:00.482Z,12.30
2017-08-17T06:13:35.250Z,12.20
2017-08-17T06:16:09.979Z,11.37
2017-08-17T06:18:44.699Z,11.40
2017-08-17T06:21:19.602Z,13.10
2017-08-17T06:23:54.534Z,11.97
2017-08-17T06:26:29.150Z,11.57
2017-08-17T06:29:03.775Z,11.57
2017-08-17T06:31:38.611Z,11.37
2017-08-17T06:34:13.368Z,11.20
2017-08-17T06:36:48.011Z,10.87
2017-08-17T06:39:22.799Z,10.73
2017-08-17T06:41:57.552Z,10.40
2017-08-17T06:44:32.164Z,10.40
2017-08-17T06:47:07.996Z,11.03
2017-08-17T06:49:42.743Z,11.97
2017-08-17T06:52:17.487Z,11.00
2017-08-17T06:54:52.186Z,10.50
2017-08-17T06:57:27.948Z,10.87
2017-08-17T07:00:02.690Z,10.70
2017-08-17T07:02:37.513Z,10.10
2017-08-17T07:05:12.231Z,10.80
2017-08-17T07:07:47.090Z,10.70
2017-08-17T07:10:22.810Z,10.60
2017-08-17T07:12:57.582Z,10.10
2017-08-17T07:15:32.196Z,9.53
2017-08-17T07:18:06.911Z,10.33
2017-08-17T07:20:41.624Z,10.43
2017-08-17T07:23:16.338Z,10.30
2017-08-17T07:25:50.888Z,10.57
2017-08-17T07:28:25.716Z,11.00
2017-08-17T07:31:00.465Z,11.10
2017-08-17T07:33:36.143Z,10.20
2017-08-17T07:36:11.751Z,10.43
2017-08-17T07:38:46.475Z,11.03
2017-08-17T07:41:21.117Z,10.80
2017-08-17T07:43:55.736Z,11.17
2017-08-17T07:46:30.460Z,10.10
2017-08-17T07:49:05.206Z,11.73
2017-08-17T07:51:39.856Z,11.60
2017-08-17T07:54:15.136Z,11.50
2017-08-17T07:56:50.203Z,12.07
2017-08-17T07:59:24.506Z,12.50
2017-08-17T08:01:59.537Z,12.70
2017-08-17T08:04:34.317Z,11.57
2017-08-17T08:07:09.146Z,12.20
2017-08-17T08:09:43.887Z,12.70
2017-08-17T08:12:18.647Z,12.93
2017-08-17T08:14:53.437Z,13.33
2017-08-17T08:17:28.167Z,11.80
2017-08-17T08:20:02.906Z,12.60
2017-08-17T08:22:37.567Z,13.43
2017-08-17T08:25:12.452Z,13.27
2017-08-17T08:27:47.226Z,13.40
2017-08-17T08:30:21.820Z,13.23
2017-08-17T08:32:56.622Z,14.50
2017-08-17T08:35:31.376Z,13.33
2017-08-17T08:38:06.001Z,14.00
2017-08-17T08:40:40.683Z,12.97
2017-08-17T08:43:15.404Z,13.77
2017-08-17T08:45:50.299Z,12.80
2017-08-17T08:48:25.007Z,12.43
2017-08-17T08:51:00.724Z,12.50
2017-08-17T08:53:35.279Z,12.83
2017-08-17T08:56:10.016Z,12.03
2017-08-17T08:58:44.944Z,11.80
2017-08-17T09:01:19.581Z,11.60
2017-08-17T09:03:54.388Z,10.40
2017-08-17T09:06:29.137Z,10.00
2017-08-17T09:09:03.396Z,10.30
2017-08-17T09:11:38.482Z,9.70
2017-08-17T09:14:13.100Z,8.27
2017-08-17T09:16:47.717Z,8.97
2017-08-17T09:19:22.240Z,7.83
2017-08-17T09:21:56.984Z,8.50
2017-08-17T09:24:31.799Z,7.93
2017-08-17T09:27:06.394Z,8.03
2017-08-17T09:29:41.103Z,7.60
2017-08-17T09:32:15.799Z,7.80
2017-08-17T09:34:51.621Z,7.30
2017-08-17T09:37:27.375Z,6.77
2017-08-17T09:40:02.087Z,6.90
2017-08-17T09:42:36.623Z,7.33
2017-08-17T09:45:11.175Z,6.00
2017-08-17T09:47:45.884Z,6.53
2017-08-17T09:50:20.560Z,6.20
2017-08-17T09:52:54.990Z,6.73
2017-08-17T09:55:29.583Z,7.87
2017-08-17T09:58:04.787Z,7.90
2017-08-17T10:00:39.606Z,8.17
2017-08-17T10:03:14.372Z,7.60
2017-08-17T10:05:50.099Z,7.80
2017-08-17T10:08:24.836Z,8.20
2017-08-17T10:10:59.440Z,8.00
2017-08-17T10:13:34.084Z,7.63
2017-08-17T10:16:08.700Z,7.90
2017-08-17T10:18:44.355Z,7.53
2017-08-17T10:21:18.976Z,7.13
2017-08-17T10:23:53.628Z,7.30
2017-08-17T10:26:28.336Z,7.53
2017-08-17T10:29:02.888Z,7.17
2017-08-17T10:31:37.587Z,6.83
2017-08-17T10:34:12.211Z,7.07
2017-08-17T10:36:47.783Z,6.23
2017-08-17T10:39:22.443Z,6.57
2017-08-17T10:41:57.079Z,6.33
2017-08-17T10:44:32.770Z,6.20
2017-08-17T10:47:07.179Z,5.57
2017-08-17T10:49:41.709Z,5.60
2017-08-17T10:52:16.372Z,5.83
2017-08-17T10:54:51.832Z,5.70
2017-08-17T10:57:26.426Z,6.37
2017-08-17T11:00:02.062Z,5.30
2017-08-17T11:02:36.679Z,6.23
2017-08-17T11:05:11.335Z,6.00
2017-08-17T11:07:46.002Z,5.07
2017-08-17T11:10:20.748Z,5.00
2017-08-17T11:12:55.760Z,5.13
2017-08-17T11:15:30.299Z,4.53
2017-08-17T11:18:05.679Z,6.07
2017-08-17T11:20:40.418Z,5.00
2017-08-17T11:23:14.980Z,4.37
2017-08-17T11:25:49.575Z,4.77
2017-08-17T11:28:24.068Z,4.07
2017-08-17T11:30:58.827Z,4.60
2017-08-17T11:33:33.328Z,3.90
2017-08-17T11:36:08.036Z,4.83
2017-08-17T11:38:43.635Z,4.70
2017-08-17T11:41:18.278Z,4.27
2017-08-17T11:43:52.939Z,4.43
2017-08-17T11:46:28.708Z,4.57
2017-08-17T11:49:03.419Z,4.13
2017-08-17T11:51:38.092Z,4.67
2017-08-17T11:54:12.543Z,4.47
2017-08-17T11:56:48.179Z,4.87
2017-08-17T11:59:22.816Z,5.03
2017-08-17T12:01:58.346Z,5.80
2017-08-17T12:04:32.891Z,5.20
2017-08-17T12:07:07.484Z,5.37
2017-08-17T12:09:41.974Z,5.03
2017-08-17T12:12:16.623Z,5.63
2017-08-17T12:14:51.179Z,5.10
2017-08-17T12:17:25.919Z,5.63
2017-08-17T12:20:00.592Z,5.30
2017-08-17T12:22:35.215Z,5.83
2017-08-17T12:25:09.926Z,6.33
2017-08-17T12:27:45.436Z,6.87
2017-08-17T12:30:20.108Z,5.50
2017-08-17T12:32:55.899Z,5.53
2017-08-17T12:35:30.323Z,5.87
2017-08-17T12:38:05.267Z,5.40
2017-08-17T12:40:40.908Z,7.57
2017-08-17T12:43:15.510Z,7.43
2017-08-17T12:46:27.626Z,6.97
2017-08-17T12:49:02.079Z,6.50
2017-08-17T12:51:36.582Z,6.80
2017-08-17T12:54:11.140Z,6.53
2017-08-17T12:56:45.852Z,6.50
2017-08-17T12:59:20.791Z,7.03
2017-08-17T13:01:56.398Z,6.57
2017-08-17T13:04:31.351Z,6.33
2017-08-17T13:07:05.835Z,6.20
2017-08-17T13:09:40.495Z,6.67
2017-08-17T13:12:15.061Z,6.20
2017-08-17T13:14:49.731Z,6.60
2017-08-17T13:17:24.379Z,5.93
2017-08-17T13:19:59.136Z,6.27
2017-08-17T13:22:33.860Z,6.90
2017-08-17T13:25:08.655Z,7.80
2017-08-17T13:27:43.869Z,7.80
2017-08-17T13:30:18.622Z,6.73
2017-08-17T13:32:53.351Z,6.80
2017-08-17T13:35:29.098Z,6.53
2017-08-17T13:38:03.753Z,7.20
2017-08-17T13:40:39.484Z,5.83
2017-08-17T13:43:14.191Z,6.60
2017-08-17T13:45:48.944Z,5.80
2017-08-17T13:48:23.544Z,6.83
2017-08-17T13:50:58.407Z,6.50
2017-08-17T13:53:33.071Z,5.50
2017-08-17T13:56:07.638Z,6.30
2017-08-17T13:58:42.379Z,7.50
2017-08-17T14:01:17.101Z,6.00
2017-08-17T14:03:51.840Z,6.77
2017-08-17T14:06:26.667Z,7.60
2017-08-17T14:09:01.262Z,7.80
2017-08-17T14:11:36.266Z,7.20
2017-08-17T14:14:10.956Z,7.73
2017-08-17T14:16:45.656Z,6.57
2017-08-17T14:19:20.277Z,7.03
2017-08-17T14:21:55.149Z,7.80
2017-08-17T14:24:30.786Z,6.77
2017-08-17T14:27:05.435Z,8.37
2017-08-17T14:29:40.122Z,8.00
2017-08-17T14:32:14.780Z,7.57
2017-08-17T14:34:49.486Z,6.77
2017-08-17T14:37:24.247Z,7.40
2017-08-17T14:39:59.317Z,6.90
2017-08-17T14:42:33.989Z,6.33
2017-08-17T14:45:08.573Z,6.97
2017-08-17T14:47:43.290Z,7.10
2017-08-17T14:50:17.860Z,7.30
2017-08-17T14:52:53.986Z,6.73
2017-08-17T14:55:28.439Z,7.77
2017-08-17T14:58:03.063Z,9.03
2017-08-17T15:00:37.806Z,9.47
2017-08-17T15:03:13.567Z,11.60
2017-08-17T15:05:48.470Z,9.93
2017-08-17T15:08:23.212Z,10.40
2017-08-17T15:10:58.144Z,10.17
2017-08-17T15:13:32.816Z,11.23
2017-08-17T15:16:08.518Z,11.60
2017-08-17T15:18:43.356Z,10.70
2017-08-17T15:21:19.103Z,10.90
2017-08-17T15:23:53.955Z,11.57
2017-08-17T15:26:28.711Z,11.23
2017-08-17T15:29:03.441Z,11.73
2017-08-17T15:31:38.166Z,11.10
2017-08-17T15:34:12.863Z,9.90
2017-08-17T15:36:47.675Z,10.90
2017-08-17T15:39:22.458Z,11.40
2017-08-17T15:41:57.364Z,12.10
2017-08-17T15:44:32.093Z,11.80
2017-08-17T15:47:06.986Z,11.17
2017-08-17T15:49:41.751Z,11.20
2017-08-17T15:52:16.476Z,12.47
2017-08-17T15:54:52.259Z,10.90
2017-08-17T15:57:26.850Z,11.60
2017-08-17T16:00:01.622Z,10.87
2017-08-17T16:02:36.502Z,11.50
2017-08-17T16:05:11.870Z,11.30
2017-08-17T16:07:47.814Z,11.83
2017-08-17T16:10:22.551Z,10.80
2017-08-17T16:12:57.274Z,10.03
2017-08-17T16:15:32.039Z,11.20
2017-08-17T16:18:06.435Z,9.20
2017-08-17T16:20:41.587Z,10.53
2017-08-17T16:23:17.568Z,11.80
2017-08-17T16:25:52.499Z,12.23
2017-08-17T16:28:27.228Z,13.80
2017-08-17T16:31:02.300Z,15.80
2017-08-17T16:33:38.281Z,15.30
2017-08-17T16:36:13.452Z,16.07
2017-08-17T16:38:48.158Z,13.10
2017-08-17T16:41:22.895Z,12.50
2017-08-17T16:43:57.807Z,11.60
2017-08-17T16:46:33.452Z,11.70
2017-08-17T16:49:08.198Z,10.93
2017-08-17T16:51:42.920Z,9.73
2017-08-17T16:54:18.338Z,10.63
2017-08-17T16:56:53.281Z,9.37
2017-08-17T16:59:27.905Z,9.37
2017-08-17T17:02:03.705Z,10.03
2017-08-17T17:04:39.315Z,9.00
2017-08-17T17:07:14.124Z,10.67
2017-08-17T17:09:48.874Z,16.17
2017-08-17T17:12:23.798Z,15.30
2017-08-17T17:14:58.563Z,15.47
2017-08-17T17:17:33.387Z,18.53
2017-08-17T17:20:07.989Z,17.00
2017-08-17T17:22:43.867Z,17.77
2017-08-17T17:25:18.626Z,14.30
2017-08-17T17:27:53.546Z,13.60
2017-08-17T17:30:28.387Z,15.53
2017-08-17T17:33:03.413Z,19.53
2017-08-17T17:35:38.710Z,16.10
2017-08-17T17:38:13.495Z,20.10
2017-08-17T17:40:48.324Z,19.60
2017-08-17T17:43:23.418Z,19.87
2017-08-17T17:45:58.511Z,17.70
2017-08-17T17:48:33.022Z,13.77
2017-08-17T17:51:08.754Z,13.20
2017-08-17T17:53:43.459Z,9.50
2017-08-17T17:56:18.188Z,9.40
2017-08-17T17:58:52.811Z,9.60
2017-08-17T18:01:27.456Z,10.13
2017-08-17T18:04:02.271Z,10.80
2017-08-17T18:06:37.012Z,12.37
2017-08-17T18:09:11.734Z,11.40
2017-08-17T18:11:47.288Z,11.77
2017-08-17T18:14:22.007Z,11.10
2017-08-17T18:16:56.838Z,12.53
2017-08-17T18:19:31.566Z,11.70
2017-08-17T18:22:06.280Z,12.17
2017-08-17T18:24:41.122Z,14.87
2017-08-17T18:27:16.068Z,14.10
2017-08-17T18:29:50.787Z,11.93
2017-08-17T18:32:25.642Z,11.93
2017-08-17T18:35:00.364Z,12.63
2017-08-17T18:37:35.194Z,11.60
2017-08-17T18:40:10.002Z,11.10
2017-08-17T18:42:44.736Z,11.50
2017-08-17T18:45:19.479Z,8.87
2017-08-17T18:47:54.827Z,10.70
2017-08-17T18:50:29.730Z,11.63
2017-08-17T18:53:04.462Z,10.80
2017-08-17T18:55:39.220Z,14.07
2017-08-17T18:58:14.375Z,12.70
2017-08-17T19:00:49.201Z,16.63
2017-08-17T19:03:23.940Z,19.27
2017-08-17T19:05:59.776Z,13.70
2017-08-17T19:08:34.471Z,11.13
2017-08-17T19:11:11.298Z,10.10
2017-08-17T19:13:45.929Z,11.40
2017-08-17T19:16:21.009Z,10.53
2017-08-17T19:18:56.255Z,11.30
2017-08-17T19:21:31.315Z,10.17
2017-08-17T19:24:06.091Z,10.20
2017-08-17T19:26:40.883Z,10.70
2017-08-17T19:29:16.872Z,10.10
2017-08-17T19:31:51.487Z,9.80
2017-08-17T19:34:26.431Z,10.40
2017-08-17T19:37:00.955Z,10.27
2017-08-17T19:39:35.696Z,11.30
2017-08-17T19:42:10.456Z,10.17
2017-08-17T19:44:45.208Z,11.00
2017-08-17T19:47:20.015Z,12.17
2017-08-17T19:49:54.540Z,11.10
2017-08-17T19:52:29.542Z,12.10
2017-08-17T19:55:04.216Z,11.20
2017-08-17T19:57:38.974Z,11.90
2017-08-17T20:00:13.703Z,11.43
2017-08-17T20:02:48.621Z,11.53
2017-08-17T20:05:24.470Z,11.10
2017-08-17T20:07:59.187Z,11.57
2017-08-17T20:10:33.911Z,10.93
2017-08-17T20:13:08.667Z,10.67
2017-08-17T20:15:43.799Z,11.13
2017-08-17T20:18:18.749Z,10.27
2017-08-17T20:20:54.658Z,10.53
2017-08-17T20:23:29.571Z,10.63
2017-08-17T20:26:04.923Z,9.93
2017-08-17T20:28:39.653Z,10.77
2017-08-17T20:31:14.392Z,9.37
2017-08-17T20:33:49.124Z,10.50
2017-08-17T20:36:23.840Z,10.03
2017-08-17T20:38:58.803Z,10.07
2017-08-17T20:41:33.648Z,9.20
2017-08-17T20:44:10.231Z,10.67
2017-08-17T20:46:45.392Z,9.07
2017-08-17T20:49:20.196Z,8.97
2017-08-17T20:51:54.866Z,10.13
2017-08-17T20:54:30.684Z,8.83
2017-08-17T20:57:05.380Z,9.50
2017-08-17T20:59:40.211Z,9.27
2017-08-17T21:02:14.579Z,9.70
2017-08-17T21:04:49.784Z,9.47
2017-08-17T21:07:24.626Z,9.67
2017-08-17T21:09:59.348Z,9.67
2017-08-17T21:12:34.044Z,9.70
2017-08-17T21:15:08.763Z,8.20
2017-08-17T21:17:43.844Z,9.43
2017-08-17T21:20:18.383Z,8.80
2017-08-17T21:22:53.108Z,8.10
2017-08-17T21:25:27.860Z,9.00
2017-08-17T21:28:02.513Z,9.30
2017-08-17T21:30:38.228Z,8.27
2017-08-17T21:33:12.876Z,7.77
2017-08-17T21:35:47.749Z,8.30
2017-08-17T21:38:22.472Z,8.63
2017-08-17T21:40:57.191Z,9.80
2017-08-17T21:43:31.922Z,8.50
2017-08-17T21:46:06.629Z,9.40
2017-08-17T21:48:41.662Z,10.27
2017-08-17T21:51:16.175Z,9.93
2017-08-17T21:53:51.047Z,9.87
2017-08-17T21:56:25.860Z,9.87
2017-08-17T21:59:00.659Z,10.13
2017-08-17T22:01:35.572Z,10.00
2017-08-17T22:04:10.308Z,10.33
2017-08-17T22:06:44.910Z,9.70
2017-08-17T22:09:19.740Z,10.23
2017-08-17T22:11:54.479Z,10.10
2017-08-17T22:14:29.132Z,10.97
2017-08-17T22:17:03.911Z,10.93
2017-08-17T22:19:38.540Z,12.07
2017-08-17T22:22:13.300Z,10.43
2017-08-17T22:24:49.120Z,10.70
2017-08-17T22:27:23.747Z,11.20
2017-08-17T22:29:59.626Z,10.83
2017-08-17T22:32:34.437Z,10.93
2017-08-17T22:35:09.094Z,10.03
2017-08-17T22:37:44.822Z,10.57
2017-08-17T22:40:19.441Z,11.07
2017-08-17T22:42:54.076Z,10.93
2017-08-17T22:45:28.836Z,10.13
2017-08-17T22:48:03.532Z,9.57
2017-08-17T22:50:38.372Z,11.07
2017-08-17T22:53:14.214Z,10.43
2017-08-17T22:55:49.056Z,10.33
2017-08-17T22:58:23.762Z,9.87
2017-08-17T23:00:58.732Z,11.03
2017-08-17T23:03:33.494Z,9.47
2017-08-17T23:06:08.307Z,10.80
2017-08-17T23:08:42.870Z,9.80
2017-08-17T23:11:17.895Z,10.30
2017-08-17T23:13:52.767Z,10.07
2017-08-17T23:16:27.166Z,9.97
2017-08-17T23:19:02.572Z,10.07
2017-08-17T23:21:36.943Z,9.57
2017-08-17T23:24:11.456Z,9.53
2017-08-17T23:26:46.363Z,9.67
2017-08-17T23:29:21.002Z,8.53
2017-08-17T23:31:55.531Z,9.67
2017-08-17T23:34:30.315Z,9.63
2017-08-17T23:37:05.035Z,10.17
2017-08-17T23:39:39.490Z,10.17
2017-08-17T23:42:14.765Z,9.93
2017-08-17T23:44:49.992Z,10.40
2017-08-17T23:47:24.435Z,9.90
2017-08-17T23:49:59.264Z,10.73
2017-08-17T23:52:34.136Z,9.70
2017-08-17T23:55:08.852Z,10.60
2017-08-17T23:57:44.011Z,9.30
